Time;durP1;ratioP1;P1;durP2;ratioP2;P2;SDS_P1;SDS_P2;PMS_P1;PMS_P2;Temp;Humidity;BMP_temperature;BMP_pressure;BME280_temperature;BME280_humidity;BME280_pressure;Samples;Min_cycle;Max_cycle;Signal;HPM_P1;HPM_P2
2023/01/29 00:01:21;;;;;;;30.80;11.60;;;;;;;-1.78;100.00;96336.50;4958561;28;20096;-77
2023/01/29 00:03:49;;;;;;;32.83;11.93;;;;;;;-1.79;100.00;96330.56;4972780;28;20047;-78
2023/01/29 00:06:15;;;;;;;32.40;12.45;;;;;;;-1.83;100.00;96333.66;4973787;28;20259;-77
2023/01/29 00:08:41;;;;;;;29.45;12.27;;;;;;;-1.74;100.00;96332.63;4956231;28;20043;-77
2023/01/29 00:11:07;;;;;;;27.92;10.75;;;;;;;-1.80;100.00;96328.94;4974247;28;20046;-77
2023/01/29 00:13:33;;;;;;;33.58;11.35;;;;;;;-1.65;100.00;96335.94;4976337;28;20443;-77
2023/01/29 00:15:59;;;;;;;29.52;11.65;;;;;;;-1.72;100.00;96335.84;4972329;28;20042;-77
2023/01/29 00:18:26;;;;;;;26.60;11.13;;;;;;;-1.73;100.00;96329.06;4975555;28;20611;-77
2023/01/29 00:20:51;;;;;;;30.50;11.68;;;;;;;-1.75;100.00;96325.88;4971986;28;20049;-77
2023/01/29 00:23:17;;;;;;;31.85;11.50;;;;;;;-1.74;100.00;96337.78;4976311;28;20039;-76
2023/01/29 00:25:42;;;;;;;27.05;11.32;;;;;;;-1.71;100.00;96334.88;4972131;28;20069;-77
2023/01/29 00:28:08;;;;;;;29.98;11.23;;;;;;;-1.67;100.00;96345.63;4955278;28;20069;-77
2023/01/29 00:30:35;;;;;;;31.77;12.38;;;;;;;-1.62;100.00;96345.94;4973324;28;20043;-77
2023/01/29 00:33:01;;;;;;;28.70;11.00;;;;;;;-1.57;100.00;96344.47;4966587;28;20109;-77
2023/01/29 00:35:27;;;;;;;25.60;10.32;;;;;;;-1.63;100.00;96334.78;4972125;28;20039;-78
2023/01/29 00:37:54;;;;;;;30.52;11.05;;;;;;;-1.59;100.00;96346.38;4975619;28;20038;-79
2023/01/29 00:40:19;;;;;;;26.13;10.50;;;;;;;-1.61;100.00;96348.34;4972721;28;20090;-78
2023/01/29 00:45:29;;;;;;;24.38;10.23;;;;;;;-1.61;100.00;96356.09;4958861;28;20058;-78
2023/01/29 00:47:54;;;;;;;20.98;10.05;;;;;;;-1.76;100.00;96350.06;4972930;28;20093;-78
2023/01/29 00:50:20;;;;;;;22.42;9.63;;;;;;;-1.79;100.00;96361.50;4973713;28;20054;-78
2023/01/29 00:52:47;;;;;;;19.67;9.05;;;;;;;-1.77;100.00;96353.59;4955253;28;20055;-78
2023/01/29 00:55:13;;;;;;;20.10;9.75;;;;;;;-1.61;100.00;96348.34;4975275;28;20565;-78
2023/01/29 00:57:39;;;;;;;25.45;10.30;;;;;;;-1.77;100.00;96349.25;4971486;28;20054;-78
2023/01/29 01:00:07;;;;;;;23.50;10.95;;;;;;;-1.81;100.00;96349.75;4973354;28;20042;-78
2023/01/29 01:05:18;;;;;;;19.23;9.13;;;;;;;-1.83;100.00;96354.28;4971623;28;20038;-77
2023/01/29 01:07:55;;;;;;;21.17;8.15;;;;;;;-1.78;100.00;96351.97;4954672;28;20078;-76
2023/01/29 01:10:31;;;;;;;20.98;9.13;;;;;;;-1.86;100.00;96354.63;4953497;28;20038;-77
2023/01/29 01:13:02;;;;;;;21.45;9.60;;;;;;;-1.88;100.00;96353.97;4954128;28;20039;-77
2023/01/29 01:15:34;;;;;;;13.63;7.07;;;;;;;-1.98;100.00;96352.44;4978029;28;20062;-77
2023/01/29 01:18:00;;;;;;;21.52;9.25;;;;;;;-1.86;100.00;96349.47;4970657;28;20061;-77
2023/01/29 01:20:29;;;;;;;24.60;9.80;;;;;;;-1.86;100.00;96354.63;4969898;28;20042;-77
2023/01/29 01:22:55;;;;;;;20.30;10.45;;;;;;;-1.92;100.00;96364.66;4954220;28;20043;-78
2023/01/29 01:25:23;;;;;;;22.48;9.70;;;;;;;-1.98;100.00;96365.34;4975725;28;20039;-77
2023/01/29 01:27:52;;;;;;;20.75;10.23;;;;;;;-1.98;100.00;96360.19;4970167;28;20043;-76
2023/01/29 01:30:17;;;;;;;24.88;10.45;;;;;;;-1.99;100.00;96366.28;4948518;28;20043;-76
2023/01/29 01:32:43;;;;;;;21.80;10.43;;;;;;;-1.99;100.00;96361.13;4973159;28;20053;-76
2023/01/29 01:35:10;;;;;;;22.73;10.30;;;;;;;-2.04;100.00;96360.03;4979149;28;20518;-77
2023/01/29 01:37:38;;;;;;;26.33;10.02;;;;;;;-1.96;100.00;96360.78;4975509;28;20089;-77
2023/01/29 01:40:11;;;;;;;25.80;9.80;;;;;;;-2.01;100.00;96367.44;4977580;28;20039;-77
2023/01/29 01:42:40;;;;;;;22.50;9.48;;;;;;;-2.02;100.00;96361.47;4953021;28;20043;-77
2023/01/29 01:45:16;;;;;;;19.88;9.40;;;;;;;-1.88;100.00;96366.88;4959927;28;20042;-77
2023/01/29 01:47:46;;;;;;;22.73;9.45;;;;;;;-1.98;100.00;96367.91;4974916;28;20042;-77
2023/01/29 01:50:23;;;;;;;23.10;9.00;;;;;;;-1.98;100.00;96357.59;4977679;28;20042;-77
2023/01/29 01:52:54;;;;;;;24.85;10.13;;;;;;;-1.97;100.00;96354.06;4974852;28;20039;-77
2023/01/29 01:55:24;;;;;;;22.90;9.75;;;;;;;-1.95;100.00;96354.66;4976685;28;20039;-77
2023/01/29 01:57:54;;;;;;;22.42;9.43;;;;;;;-2.07;100.00;96361.16;4974560;28;20498;-77
2023/01/29 02:00:24;;;;;;;22.50;9.50;;;;;;;-2.00;100.00;96359.53;4976261;28;20713;-77
2023/01/29 02:11:17;;;;;;;17.17;8.32;;;;;;;-1.98;100.00;96365.34;4973201;28;20646;-77
2023/01/29 02:13:43;;;;;;;21.02;9.48;;;;;;;-2.03;100.00;96375.34;4958741;28;20045;-76
2023/01/29 02:16:08;;;;;;;21.40;9.40;;;;;;;-2.02;100.00;96371.81;4973399;28;20043;-77
2023/01/29 02:18:36;;;;;;;19.65;8.77;;;;;;;-2.09;100.00;96365.72;4974510;28;20597;-77
2023/01/29 02:21:24;;;;;;;17.55;8.30;;;;;;;-2.07;100.00;96368.91;4978825;28;20065;-77
2023/01/29 02:24:34;;;;;;;16.45;8.18;;;;;;;-2.07;100.00;96378.44;4972478;28;20065;-76
2023/01/29 02:27:18;;;;;;;20.65;8.70;;;;;;;-2.07;100.00;96374.06;4970372;28;20122;-77
2023/01/29 02:29:56;;;;;;;22.30;9.27;;;;;;;-2.04;100.00;96376.34;4972663;28;20506;-77
2023/01/29 02:32:30;;;;;;;18.77;8.65;;;;;;;-2.03;100.00;96372.75;4974970;28;20035;-77
2023/01/29 02:38:00;;;;;;;16.60;7.80;;;;;;;-2.08;100.00;96369.91;4975177;28;20299;-76
2023/01/29 02:40:39;;;;;;;17.88;7.90;;;;;;;-2.08;100.00;96362.16;4958896;28;20038;-76
2023/01/29 02:43:31;;;;;;;16.27;8.15;;;;;;;-2.08;100.00;96362.16;4962302;28;20074;-76
2023/01/29 02:46:16;;;;;;;17.63;7.53;;;;;;;-2.11;100.00;96357.34;4962529;28;20114;-76
2023/01/29 02:49:03;;;;;;;15.98;7.80;;;;;;;-2.04;100.00;96358.28;4969352;28;20557;-76
2023/01/29 02:51:36;;;;;;;20.00;8.32;;;;;;;-2.06;100.00;96344.72;4973331;28;20043;-76
2023/01/29 02:54:28;;;;;;;20.42;8.18;;;;;;;-2.13;100.00;96344.59;4974019;28;20442;-76
2023/01/29 02:56:59;;;;;;;18.70;8.05;;;;;;;-2.10;100.00;96348.63;4972364;28;20046;-76
2023/01/29 02:59:42;;;;;;;19.45;8.80;;;;;;;-2.07;100.00;96344.91;4954589;28;20090;-76
2023/01/29 03:02:15;;;;;;;22.52;9.73;;;;;;;-2.15;100.00;96345.75;4969278;28;20042;-76
2023/01/29 03:04:45;;;;;;;21.98;9.13;;;;;;;-2.23;100.00;96353.53;4953232;28;20517;-76
2023/01/29 03:07:39;;;;;;;18.48;8.32;;;;;;;-2.14;100.00;96348.16;4973829;28;20043;-76
2023/01/29 03:10:08;;;;;;;17.55;8.10;;;;;;;-2.07;100.00;96343.13;4966280;28;20047;-76
2023/01/29 03:12:38;;;;;;;21.40;8.90;;;;;;;-2.09;100.00;96345.06;4969503;28;20043;-76
2023/01/29 03:15:15;;;;;;;20.80;8.65;;;;;;;-2.15;100.00;96350.91;4952149;28;20039;-76
2023/01/29 03:18:10;;;;;;;20.13;8.13;;;;;;;-2.12;100.00;96350.56;4972150;28;20043;-76
2023/01/29 03:20:50;;;;;;;19.50;9.05;;;;;;;-2.09;100.00;96345.06;4968988;28;20051;-76
2023/01/29 03:23:46;;;;;;;20.05;9.07;;;;;;;-2.11;100.00;96342.66;4958508;28;20039;-76
2023/01/29 03:34:27;;;;;;;20.98;9.13;;;;;;;-2.24;100.00;96351.91;4966773;28;20038;-75
2023/01/29 03:37:14;;;;;;;17.50;8.35;;;;;;;-2.14;100.00;96352.50;4970646;28;20047;-76
2023/01/29 03:39:40;;;;;;;17.50;8.32;;;;;;;-2.19;100.00;96357.38;4971184;28;20047;-76
2023/01/29 03:42:20;;;;;;;21.02;8.60;;;;;;;-2.25;100.00;96355.47;4974253;28;20521;-75
2023/01/29 03:44:49;;;;;;;15.23;7.25;;;;;;;-2.16;100.00;96359.63;4954465;28;20047;-75
2023/01/29 03:47:25;;;;;;;20.58;9.10;;;;;;;-2.10;100.00;96358.94;4973094;28;20089;-76
2023/01/29 03:50:07;;;;;;;19.40;8.63;;;;;;;-2.15;100.00;96353.50;4970954;28;20047;-76
2023/01/29 03:53:00;;;;;;;18.20;7.85;;;;;;;-2.24;100.00;96349.31;4974049;28;20042;-76
2023/01/29 03:55:38;;;;;;;16.20;7.43;;;;;;;-2.23;100.00;96345.78;4954223;28;20113;-76
2023/01/29 03:58:19;;;;;;;17.10;8.13;;;;;;;-2.28;100.00;96336.78;4961680;28;20046;-75
2023/01/29 04:01:09;;;;;;;18.90;8.73;;;;;;;-2.16;100.00;96333.81;4971813;28;20577;-76
2023/01/29 04:03:47;;;;;;;21.45;8.30;;;;;;;-2.18;100.00;96330.63;4970859;28;20081;-76
2023/01/29 04:06:21;;;;;;;22.00;9.85;;;;;;;-2.18;100.00;96321.09;4952145;28;20036;-75
2023/01/29 04:09:13;;;;;;;22.52;10.10;;;;;;;-2.09;100.00;96321.84;4968488;28;20038;-76
2023/01/29 04:11:46;;;;;;;22.40;10.07;;;;;;;-2.19;100.00;96316.13;4969784;28;20496;-75
2023/01/29 04:14:13;;;;;;;16.35;8.18;;;;;;;-2.17;100.00;96312.41;4971343;28;20122;-74
2023/01/29 04:16:43;;;;;;;22.30;9.93;;;;;;;-2.16;100.00;96313.19;4958123;28;20528;-75
2023/01/29 04:19:09;;;;;;;23.42;9.43;;;;;;;-2.19;100.00;96308.38;4964440;28;20053;-76
2023/01/29 04:21:38;;;;;;;22.90;10.48;;;;;;;-2.15;100.00;96313.03;4977619;28;20034;-77
2023/01/29 04:24:05;;;;;;;24.00;10.52;;;;;;;-2.09;100.00;96317.50;4945923;28;20042;-74
2023/01/29 04:26:43;;;;;;;23.77;10.20;;;;;;;-2.12;100.00;96324.78;4967527;28;20046;-75
2023/01/29 04:29:22;;;;;;;21.80;9.95;;;;;;;-2.24;100.00;96315.81;4968329;28;20069;-75
2023/01/29 04:31:57;;;;;;;19.33;9.80;;;;;;;-2.19;100.00;96318.69;4954327;28;20043;-74
2023/01/29 04:34:25;;;;;;;;;;;;;;;-2.21;100.00;96320.63;4971446;28;20039;-75
2023/01/29 04:36:57;;;;;;;21.17;9.38;;;;;;;-2.24;100.00;96320.97;4972219;28;20417;-75
2023/01/29 04:39:53;;;;;;;23.35;9.55;;;;;;;-2.16;100.00;96321.72;4968657;28;20039;-75
2023/01/29 04:42:30;;;;;;;27.75;11.57;;;;;;;-2.16;100.00;96323.50;4949984;28;20059;-75
2023/01/29 04:45:02;;;;;;;24.63;12.00;;;;;;;-2.27;100.00;96324.66;4970926;28;20066;-75
2023/01/29 04:47:48;;;;;;;27.63;10.90;;;;;;;-2.27;100.00;96328.06;4970969;28;20039;-75
2023/01/29 04:50:22;;;;;;;24.45;11.02;;;;;;;-2.15;100.00;96325.91;4970183;28;20050;-75
2023/01/29 04:53:14;;;;;;;24.30;11.48;;;;;;;-2.16;100.00;96328.66;4970719;28;20503;-75
2023/01/29 04:55:50;;;;;;;24.55;10.57;;;;;;;-2.23;100.00;96327.72;4969670;28;20438;-74
2023/01/29 04:58:38;;;;;;;25.60;10.68;;;;;;;-2.23;100.00;96320.00;4967913;28;20039;-75
2023/01/29 05:01:08;;;;;;;21.50;10.45;;;;;;;-2.13;100.00;96328.31;4969822;28;20414;-75
2023/01/29 05:03:36;;;;;;;26.17;11.23;;;;;;;-2.08;100.00;96318.31;4951062;28;20691;-74
2023/01/29 05:06:03;;;;;;;25.25;11.43;;;;;;;-2.06;100.00;96318.94;4964706;28;20043;-74
2023/01/29 05:08:31;;;;;;;24.45;10.88;;;;;;;-2.10;100.00;96322.81;4974402;28;20501;-75
2023/01/29 05:10:58;;;;;;;26.92;10.68;;;;;;;-2.12;100.00;96324.78;4973838;28;20142;-75
2023/01/29 05:13:28;;;;;;;27.58;11.52;;;;;;;-2.18;100.00;96325.47;4974799;28;20054;-75
2023/01/29 05:15:59;;;;;;;28.92;12.23;;;;;;;-2.20;100.00;96327.41;4973438;28;20046;-74
2023/01/29 05:18:25;;;;;;;26.63;12.00;;;;;;;-2.14;100.00;96330.13;4974329;28;20413;-74
2023/01/29 05:20:52;;;;;;;23.45;11.15;;;;;;;-2.12;100.00;96330.72;4979713;28;20047;-75
2023/01/29 05:23:20;;;;;;;24.00;10.68;;;;;;;-2.20;100.00;96333.34;4975900;28;20035;-74
2023/01/29 05:25:48;;;;;;;23.73;10.50;;;;;;;-2.04;100.00;96337.66;4980753;28;20047;-74
2023/01/29 05:28:16;;;;;;;21.48;9.48;;;;;;;-2.10;100.00;96338.31;4973166;28;20046;-74
2023/01/29 05:30:44;;;;;;;23.08;10.07;;;;;;;-2.09;100.00;96350.22;4976739;28;20051;-74
2023/01/29 05:33:21;;;;;;;29.52;12.30;;;;;;;-2.20;100.00;96353.19;4971793;28;20046;-75
2023/01/29 05:35:48;;;;;;;25.23;10.60;;;;;;;-2.21;100.00;96354.16;4979368;28;20517;-74
2023/01/29 05:38:14;;;;;;;24.48;10.55;;;;;;;-2.28;100.00;96362.56;4973322;28;20039;-74
2023/01/29 05:40:40;;;;;;;26.00;11.38;;;;;;;-2.22;100.00;96360.28;4956049;28;20510;-74
2023/01/29 05:43:23;;;;;;;27.70;10.98;;;;;;;-2.25;100.00;96363.22;4973853;28;20042;-74
2023/01/29 05:45:57;;;;;;;23.48;10.07;;;;;;;-2.23;100.00;96366.41;4980760;28;20043;-74
2023/01/29 05:48:24;;;;;;;19.90;9.38;;;;;;;-2.13;100.00;96364.44;4972439;28;20146;-73
2023/01/29 05:50:50;;;;;;;26.65;11.10;;;;;;;-2.11;100.00;96372.81;4978948;28;20097;-74
2023/01/29 05:53:16;;;;;;;25.98;9.75;;;;;;;-2.13;100.00;96364.44;4973689;28;20102;-74
2023/01/29 05:55:46;;;;;;;20.00;9.85;;;;;;;-2.12;100.00;96366.84;4975790;28;20050;-74
2023/01/29 05:58:11;;;;;;;23.98;10.02;;;;;;;-2.16;100.00;96370.72;4972400;28;20039;-74
2023/01/29 06:00:37;;;;;;;22.27;9.18;;;;;;;-2.08;100.00;96367.31;4977790;28;20046;-74
2023/01/29 06:03:03;;;;;;;15.93;7.75;;;;;;;-2.08;100.00;96359.59;4970246;28;20035;-74
2023/01/29 06:05:29;;;;;;;16.58;7.63;;;;;;;-2.08;100.00;96362.16;4975136;28;20046;-74
2023/01/29 06:07:54;;;;;;;15.00;6.20;;;;;;;-2.08;100.00;96362.16;4972629;28;20122;-74
2023/01/29 06:10:20;;;;;;;13.27;6.25;;;;;;;-2.07;100.00;96368.91;4968849;28;20043;-74
2023/01/29 06:12:45;;;;;;;14.90;6.38;;;;;;;-2.06;100.00;96367.94;4971483;28;20053;-74
2023/01/29 06:15:12;;;;;;;12.85;5.63;;;;;;;-2.05;100.00;96361.81;4956080;28;20089;-74
2023/01/29 06:17:37;;;;;;;12.00;5.82;;;;;;;-2.08;100.00;96357.00;4971664;28;20043;-74
2023/01/29 06:20:04;;;;;;;13.48;6.80;;;;;;;-2.10;100.00;96358.94;4971521;28;20062;-74
2023/01/29 06:22:31;;;;;;;16.20;7.30;;;;;;;-2.15;100.00;96350.91;4974057;28;20050;-75
2023/01/29 06:24:56;;;;;;;14.90;7.20;;;;;;;-2.09;100.00;96357.97;4973910;28;20042;-74
2023/01/29 06:27:22;;;;;;;15.73;7.07;;;;;;;-2.10;100.00;96364.09;4978582;28;20058;-73
2023/01/29 06:29:47;;;;;;;16.00;7.97;;;;;;;-2.21;100.00;96367.03;4971475;28;20062;-73
2023/01/29 06:32:13;;;;;;;18.98;8.27;;;;;;;-2.16;100.00;96359.63;4969945;28;20129;-74
2023/01/29 06:34:38;;;;;;;17.45;8.65;;;;;;;-2.21;100.00;96372.19;4972263;28;20068;-74
2023/01/29 06:37:04;;;;;;;18.05;8.52;;;;;;;-2.18;100.00;96371.88;4970633;28;20043;-73
2023/01/29 06:39:30;;;;;;;17.42;7.57;;;;;;;-2.11;100.00;96372.81;4974749;28;20515;-74
2023/01/29 06:41:55;;;;;;;18.70;8.95;;;;;;;-2.12;100.00;96371.22;4969056;28;20066;-74
2023/01/29 06:44:21;;;;;;;17.60;7.93;;;;;;;-2.15;100.00;96372.34;4954603;28;20109;-73
2023/01/29 06:46:46;;;;;;;19.73;8.73;;;;;;;-2.18;100.00;96379.63;4939885;28;20073;-74
2023/01/29 06:49:12;;;;;;;17.42;8.52;;;;;;;-2.07;100.00;96373.28;4977211;28;20043;-75
2023/01/29 06:51:38;;;;;;;24.10;9.50;;;;;;;-2.10;100.00;96374.41;4971824;28;20046;-75
2023/01/29 06:54:03;;;;;;;20.40;9.15;;;;;;;-2.19;100.00;96385.75;4970654;28;20069;-74
2023/01/29 06:56:29;;;;;;;21.73;9.43;;;;;;;-2.17;100.00;96378.63;4971497;28;20034;-76
2023/01/29 06:58:54;;;;;;;21.20;9.30;;;;;;;-2.22;100.00;96375.75;4970606;28;20399;-74
2023/01/29 07:01:20;;;;;;;19.67;9.25;;;;;;;-2.20;100.00;96368.66;4961815;28;20534;-75
2023/01/29 07:03:49;;;;;;;20.80;8.70;;;;;;;-2.12;100.00;96377.16;4946798;28;20059;-75
2023/01/29 07:06:15;;;;;;;13.20;6.43;;;;;;;-2.11;100.00;96372.81;4976705;28;20409;-74
2023/01/29 07:08:40;;;;;;;13.80;5.93;;;;;;;-2.03;100.00;96365.03;4973496;28;20047;-75
2023/01/29 07:11:06;;;;;;;9.65;4.95;;;;;;;-2.16;100.00;96364.78;4961095;28;20426;-76
2023/01/29 07:13:32;;;;;;;11.10;4.95;;;;;;;-2.13;100.00;96369.59;4971945;28;20035;-74
2023/01/29 07:16:00;;;;;;;10.45;5.20;;;;;;;-2.16;100.00;96375.09;4971590;28;20043;-77
2023/01/29 07:18:26;;;;;;;11.25;5.10;;;;;;;-2.11;100.00;96365.88;4955563;28;20430;-76
2023/01/29 07:20:52;;;;;;;10.13;4.75;;;;;;;-2.09;100.00;96370.88;4963672;28;20031;-77
2023/01/29 07:23:18;;;;;;;10.73;5.32;;;;;;;-2.16;100.00;96365.56;4970183;28;20125;-77
2023/01/29 07:25:43;;;;;;;12.02;5.70;;;;;;;-2.12;100.00;96355.72;4972546;28;20125;-77
2023/01/29 07:28:09;;;;;;;13.63;5.95;;;;;;;-2.14;100.00;96349.91;4972027;28;20038;-76
2023/01/29 07:30:35;;;;;;;10.93;5.72;;;;;;;-2.13;100.00;96354.13;4971173;28;20078;-76
2023/01/29 07:33:06;;;;;;;15.23;7.07;;;;;;;-2.20;100.00;96346.22;4972359;28;20042;-77
2023/01/29 07:35:38;;;;;;;10.57;5.00;;;;;;;-2.11;100.00;96349.59;4955543;28;20422;-76
2023/01/29 07:38:03;;;;;;;17.98;5.07;;;;;;;-2.01;100.00;96347.63;4970752;28;20144;-80
2023/01/29 07:40:29;;;;;;;9.13;4.35;;;;;;;-2.06;100.00;96344.72;4952383;28;20172;-76
2023/01/29 07:42:59;;;;;;;9.27;4.65;;;;;;;-2.05;100.00;96341.19;4954018;28;20043;-79
2023/01/29 07:45:26;;;;;;;11.23;5.20;;;;;;;-2.12;100.00;96350.56;4972463;28;20569;-81
2023/01/29 07:47:53;;;;;;;11.25;5.22;;;;;;;-2.13;100.00;96338.63;4971785;28;20042;-77
2023/01/29 07:50:19;;;;;;;10.30;4.80;;;;;;;-2.09;100.00;96339.91;4958030;28;20403;-76
2023/01/29 07:52:44;;;;;;;9.27;4.00;;;;;;;-2.09;100.00;96339.91;4968474;28;20499;-77
2023/01/29 07:55:10;;;;;;;9.05;3.80;;;;;;;-2.01;100.00;96332.13;4971215;28;20039;-76
2023/01/29 07:57:35;;;;;;;10.38;5.03;;;;;;;-1.94;100.00;96333.06;4972591;28;20043;-75
2023/01/29 08:00:01;;;;;;;10.70;5.00;;;;;;;-2.04;100.00;96342.81;4964397;28;20121;-75
2023/01/29 08:02:27;;;;;;;9.60;5.00;;;;;;;-2.02;100.00;96346.00;4971219;28;20038;-75
2023/01/29 08:04:52;;;;;;;8.52;4.25;;;;;;;-2.06;100.00;96342.16;4968431;28;20051;-79
2023/01/29 08:07:18;;;;;;;7.47;3.75;;;;;;;-2.05;100.00;96332.63;4958222;28;20073;-77
2023/01/29 08:09:44;;;;;;;7.68;3.72;;;;;;;-2.02;100.00;96330.53;4966274;28;20071;-77
2023/01/29 08:12:09;;;;;;;9.95;5.05;;;;;;;-1.95;100.00;96328.09;4953386;28;20509;-77
2023/01/29 08:14:35;;;;;;;10.85;5.05;;;;;;;-2.05;100.00;96324.88;4971598;28;20035;-76
2023/01/29 08:17:00;;;;;;;7.80;4.10;;;;;;;-1.99;100.00;96334.56;4976817;28;20046;-77
2023/01/29 08:19:26;;;;;;;7.75;4.43;;;;;;;-2.04;100.00;96329.91;4971299;28;20051;-77
2023/01/29 08:21:51;;;;;;;7.63;4.10;;;;;;;-1.95;100.00;96336.63;4974296;28;20038;-80
2023/01/29 08:24:17;;;;;;;8.20;4.28;;;;;;;-1.97;100.00;96333.41;4969164;28;20086;-78
2023/01/29 08:26:42;;;;;;;7.50;3.83;;;;;;;-1.98;100.00;96331.78;4970096;28;20070;-76
2023/01/29 08:29:10;;;;;;;11.27;5.00;;;;;;;-1.99;100.00;96345.66;4963730;28;20529;-76
2023/01/29 08:31:36;;;;;;;12.98;5.15;;;;;;;-1.95;100.00;96341.78;4951185;28;20043;-76
2023/01/29 08:34:01;;;;;;;11.40;4.30;;;;;;;-1.82;100.00;96345.59;4965440;28;20487;-77
2023/01/29 08:36:27;;;;;;;12.43;5.28;;;;;;;-1.97;100.00;96343.72;4970782;28;20046;-78
2023/01/29 08:38:52;;;;;;;10.75;5.10;;;;;;;-1.89;100.00;96340.28;4971802;28;20117;-79
2023/01/29 08:41:18;;;;;;;9.02;4.85;;;;;;;-1.74;100.00;96348.09;4955625;28;20057;-77
2023/01/29 08:43:45;;;;;;;10.35;4.95;;;;;;;-1.76;100.00;96355.22;4970089;28;20074;-76
2023/01/29 08:46:11;;;;;;;11.65;4.60;;;;;;;-1.76;100.00;96355.22;4965868;28;20035;-83
2023/01/29 08:48:37;;;;;;;11.10;5.38;;;;;;;-1.86;100.00;96365.75;4953270;28;20117;-76
2023/01/29 08:51:03;;;;;;;11.50;4.53;;;;;;;-1.71;100.00;96373.59;4966108;28;20035;-76
2023/01/29 08:53:30;;;;;;;8.25;4.20;;;;;;;-1.67;100.00;96369.66;4967225;28;20047;-76
2023/01/29 08:55:55;;;;;;;8.98;4.60;;;;;;;-1.76;100.00;96375.84;4968679;28;20049;-75
2023/01/29 08:58:21;;;;;;;7.80;3.75;;;;;;;-1.81;100.00;96372.97;4970537;28;20043;-75
2023/01/29 09:00:46;;;;;;;9.38;4.10;;;;;;;-1.83;100.00;96377.50;4969138;28;20046;-76
2023/01/29 09:03:12;;;;;;;7.70;3.97;;;;;;;-1.79;100.00;96376.22;4970198;28;20043;-77
2023/01/29 09:05:39;;;;;;;10.60;4.78;;;;;;;-1.77;100.00;96380.22;4970611;28;20085;-77
2023/01/29 09:08:06;;;;;;;14.63;4.75;;;;;;;-1.70;100.00;96380.34;4971044;28;20066;-76
2023/01/29 09:10:31;;;;;;;11.40;4.85;;;;;;;-1.68;100.00;96382.75;4968968;28;20050;-77
2023/01/29 09:12:57;;;;;;;10.32;4.60;;;;;;;-1.68;100.00;96383.56;4967555;28;20406;-77
2023/01/29 09:15:22;;;;;;;9.50;3.75;;;;;;;-1.62;100.00;96385.44;4973953;28;20813;-76
2023/01/29 09:17:48;;;;;;;8.50;4.25;;;;;;;-1.73;100.00;96385.84;4972444;28;20506;-77
2023/01/29 09:20:14;;;;;;;8.32;4.30;;;;;;;-1.67;100.00;96405.78;4966466;28;20070;-77
2023/01/29 09:22:41;;;;;;;10.73;4.65;;;;;;;-1.65;100.00;96408.22;4969969;28;20192;-77
2023/01/29 09:25:07;;;;;;;8.80;4.50;;;;;;;-1.77;100.00;96394.88;4962139;28;20043;-76
2023/01/29 09:27:32;;;;;;;10.05;4.50;;;;;;;-1.66;100.00;96404.84;4969732;28;20035;-76
2023/01/29 09:29:58;;;;;;;10.18;5.05;;;;;;;-1.61;100.00;96410.31;4967551;28;20047;-76
2023/01/29 09:32:24;;;;;;;11.05;5.25;;;;;;;-1.61;100.00;96410.31;4964432;28;20735;-76
2023/01/29 09:34:49;;;;;;;8.73;4.45;;;;;;;-1.54;100.00;96409.63;4969344;28;20045;-76
2023/01/29 09:37:16;;;;;;;10.82;4.57;;;;;;;-1.64;100.00;96414.97;4970613;28;20513;-77
2023/01/29 09:39:42;;;;;;;13.73;5.45;;;;;;;-1.51;100.00;96411.84;4952286;28;20077;-76
2023/01/29 09:42:38;;;;;;;12.65;5.40;;;;;;;-1.52;100.00;96420.56;4967156;28;20035;-77
2023/01/29 09:45:05;;;;;;;9.63;4.57;;;;;;;-1.43;100.00;96422.13;4972375;28;20039;-77
2023/01/29 09:47:34;;;;;;;10.00;4.53;;;;;;;-1.50;100.00;96421.22;4952085;28;20066;-76
2023/01/29 09:50:24;;;;;;;9.57;4.82;;;;;;;-1.54;100.00;96430.25;4974938;28;20046;-76
2023/01/29 09:53:20;;;;;;;10.27;5.00;;;;;;;-1.52;100.00;96428.31;4972804;28;20046;-77
2023/01/29 09:55:58;;;;;;;9.70;4.38;;;;;;;-1.57;100.00;96427.06;4968819;28;20050;-77
2023/01/29 09:58:45;;;;;;;8.90;4.47;;;;;;;-1.52;100.00;96423.13;4954473;28;20043;-77
2023/01/29 10:01:22;;;;;;;12.68;4.68;;;;;;;-1.38;100.00;96425.00;4967253;28;20038;-76
2023/01/29 10:04:20;;;;;;;10.20;4.47;;;;;;;-1.39;100.00;96413.06;4972612;28;20046;-79
2023/01/29 10:07:20;;;;;;;11.77;4.88;;;;;;;-1.33;100.00;96412.38;4949436;28;20050;-79
2023/01/29 10:09:57;;;;;;;10.48;4.82;;;;;;;-1.44;100.00;96415.34;4974257;28;20103;-76
2023/01/29 10:12:32;;;;;;;9.98;4.40;;;;;;;-1.31;100.00;96415.56;4962540;28;20042;-76
2023/01/29 10:15:42;;;;;;;11.30;5.55;;;;;;;-1.41;100.00;96405.50;4971321;28;20676;-74
2023/01/29 10:18:29;;;;;;;11.50;5.03;;;;;;;-1.30;100.00;96414.63;4897149;29;20076;-78
2023/01/29 10:21:03;;;;;;;10.10;5.20;;;;;;;-1.33;100.00;96412.38;4897513;29;20108;-79
2023/01/29 10:23:32;;;;;;;12.43;5.28;;;;;;;-1.36;100.00;96397.22;4945334;28;20419;-79
2023/01/29 10:25:58;;;;;;;10.70;4.85;;;;;;;-1.38;100.00;96399.16;4975353;28;20629;-82
2023/01/29 10:28:42;;;;;;;10.80;5.60;;;;;;;-1.22;100.00;96404.22;4975412;28;20096;-79
2023/01/29 10:31:35;;;;;;;11.27;5.33;;;;;;;-1.22;100.00;96404.22;4974801;28;20572;-77
2023/01/29 10:34:12;;;;;;;9.82;5.22;;;;;;;-1.27;100.00;96406.50;4975176;28;20528;-76
2023/01/29 10:36:45;;;;;;;10.75;5.38;;;;;;;-1.33;100.00;96396.88;4977064;28;20043;-80
2023/01/29 10:39:22;;;;;;;9.68;5.38;;;;;;;-1.14;100.00;96399.97;4953576;28;20046;-78
2023/01/29 10:42:05;;;;;;;10.43;5.03;;;;;;;-1.18;100.00;96403.88;4970180;28;20061;-78
2023/01/29 10:44:59;;;;;;;11.30;5.28;;;;;;;-1.13;100.00;96406.75;4974078;28;20034;-78
2023/01/29 10:47:55;;;;;;;12.68;5.47;;;;;;;-1.17;100.00;96395.16;4962711;28;20093;-77
2023/01/29 10:50:50;;;;;;;8.32;4.65;;;;;;;-1.35;100.00;96404.00;4953140;28;20043;-78
2023/01/29 10:53:43;;;;;;;13.63;6.30;;;;;;;-1.23;100.00;96386.31;4961603;28;20078;-77
2023/01/29 10:56:43;;;;;;;12.30;6.43;;;;;;;-1.25;100.00;96396.84;4968343;28;20047;-77
2023/01/29 10:59:46;;;;;;;12.60;5.80;;;;;;;-1.12;100.00;96393.66;4971005;28;20050;-77
2023/01/29 11:02:16;;;;;;;12.25;6.30;;;;;;;-1.08;100.00;96388.94;4967314;28;20110;-78
2023/01/29 11:04:43;;;;;;;15.70;6.43;;;;;;;-1.10;100.00;96390.91;4974713;28;20045;-78
2023/01/29 11:07:09;;;;;;;13.18;5.95;;;;;;;-1.16;100.00;96387.25;4973636;28;20588;-78
2023/01/29 11:09:42;;;;;;;12.07;5.35;;;;;;;-1.12;100.00;96383.34;4974155;28;20060;-77
2023/01/29 11:12:17;;;;;;;12.57;6.50;;;;;;;-1.09;100.00;96377.03;4970673;28;20073;-77
2023/01/29 11:14:51;;;;;;;12.88;6.65;;;;;;;-1.24;100.00;96375.19;4973135;28;20051;-77
2023/01/29 11:17:22;;;;;;;13.10;6.53;;;;;;;-1.20;100.00;96380.03;4972503;28;20038;-77
2023/01/29 11:19:50;;;;;;;12.18;6.10;;;;;;;-1.37;100.00;96376.75;4957048;28;20202;-80
2023/01/29 11:22:20;;;;;;;12.77;6.57;;;;;;;-1.22;100.00;96378.41;4973599;28;20034;-78
2023/01/29 11:25:04;;;;;;;13.85;6.93;;;;;;;-1.24;100.00;96380.34;4948777;28;20043;-78
2023/01/29 11:27:34;;;;;;;17.52;6.80;;;;;;;-1.42;100.00;96366.94;4945831;29;20119;-80
2023/01/29 11:30:00;;;;;;;14.43;6.22;;;;;;;-1.37;100.00;96364.63;4973204;28;20042;-80
2023/01/29 11:32:28;;;;;;;13.60;6.30;;;;;;;-1.25;100.00;96373.59;4973111;28;20074;-77
2023/01/29 11:34:57;;;;;;;14.32;6.72;;;;;;;-1.27;100.00;96362.63;4945236;28;20042;-78
2023/01/29 11:37:30;;;;;;;17.02;6.80;;;;;;;-1.22;100.00;96367.28;4950547;28;20503;-80
2023/01/29 11:39:55;;;;;;;12.20;6.55;;;;;;;-1.28;100.00;96362.78;4973455;28;20046;-77
2023/01/29 11:42:22;;;;;;;15.15;6.40;;;;;;;-1.23;100.00;96361.28;4968079;28;20123;-81
2023/01/29 11:44:48;;;;;;;12.80;6.30;;;;;;;-1.19;100.00;96360.94;4972075;28;20046;-79
2023/01/29 11:47:24;;;;;;;14.52;6.57;;;;;;;-1.22;100.00;96356.94;4972702;28;20173;-79
2023/01/29 11:49:59;;;;;;;16.27;7.15;;;;;;;-1.29;100.00;96356.03;4969552;28;20051;-78
2023/01/29 11:52:39;;;;;;;13.00;6.60;;;;;;;-1.29;100.00;96350.88;4960783;28;20041;-82
2023/01/29 11:55:19;;;;;;;11.60;6.30;;;;;;;-1.15;100.00;96329.44;4962797;28;20451;-78
2023/01/29 11:57:50;;;;;;;15.13;7.50;;;;;;;-1.03;100.00;96314.31;4970151;28;20047;-78
2023/01/29 12:00:30;;;;;;;13.15;7.05;;;;;;;-1.20;100.00;96292.19;4955636;28;20081;-78
2023/01/29 12:03:12;;;;;;;13.77;6.70;;;;;;;-1.27;100.00;96282.56;4971010;28;20070;-79